Time;durP1;ratioP1;P1;durP2;ratioP2;P2;SDS_P1;SDS_P2;PMS_P1;PMS_P2;Temp;Humidity;BMP_temperature;BMP_pressure;BME280_temperature;BME280_humidity;BME280_pressure;Samples;Min_cycle;Max_cycle;Signal;HPM_P1;HPM_P2
2022/04/24 00:01:02;;;;;;;15.27;12.20;;;;;;;-143.37;100.00;62585.38;5067524;28;20967;-77
2022/04/24 00:03:39;;;;;;;14.47;12.70;;;;;;;-143.37;100.00;62585.38;5088717;28;20451;-77
2022/04/24 00:06:14;;;;;;;17.90;13.40;;;;;;;-143.37;100.00;62585.38;5083832;28;20488;-76
2022/04/24 00:08:50;;;;;;;13.47;11.10;;;;;;;-143.37;100.00;62585.38;5087578;28;20467;-77
2022/04/24 00:11:26;;;;;;;15.43;12.40;;;;;;;-143.37;100.00;62585.38;5076015;28;20433;-76
2022/04/24 00:14:07;;;;;;;14.83;12.40;;;;;;;-143.37;100.00;62585.38;5075677;28;20543;-76
2022/04/24 00:16:43;;;;;;;14.40;12.17;;;;;;;-143.37;100.00;62585.38;5065263;28;20428;-76
2022/04/24 00:19:20;;;;;;;14.20;11.60;;;;;;;-143.37;100.00;62585.38;5074506;28;20460;-77
2022/04/24 00:21:57;;;;;;;15.20;12.87;;;;;;;-143.37;100.00;62585.38;5078520;28;20432;-77
2022/04/24 00:24:33;;;;;;;14.63;12.97;;;;;;;-143.37;100.00;62585.38;5086893;28;20459;-76
2022/04/24 00:27:09;;;;;;;17.13;12.30;;;;;;;-143.37;100.00;62585.38;5078810;28;20815;-77
2022/04/24 00:29:48;;;;;;;15.20;12.27;;;;;;;-143.37;100.00;62585.38;5074537;28;20883;-77
2022/04/24 00:32:24;;;;;;;13.63;11.70;;;;;;;-143.37;100.00;62585.38;5078895;28;20452;-77
2022/04/24 00:35:01;;;;;;;16.70;12.20;;;;;;;-143.37;100.00;62585.38;5068024;28;20853;-76
2022/04/24 00:37:36;;;;;;;17.70;13.10;;;;;;;-143.37;100.00;62585.38;5085196;28;20450;-76
2022/04/24 00:40:12;;;;;;;17.13;14.03;;;;;;;-143.37;100.00;62585.38;5084278;28;20431;-76
2022/04/24 00:42:48;;;;;;;14.90;11.87;;;;;;;-143.37;100.00;62585.38;5073724;28;20451;-76
2022/04/24 00:45:24;;;;;;;16.20;12.80;;;;;;;-143.37;100.00;62585.38;5105613;28;20938;-76
2022/04/24 00:48:00;;;;;;;17.93;13.10;;;;;;;-143.37;100.00;62585.38;5086015;28;20501;-77
2022/04/24 00:50:38;;;;;;;14.83;12.17;;;;;;;-143.37;100.00;62585.38;5074029;28;20837;-77
2022/04/24 00:53:14;;;;;;;15.87;12.10;;;;;;;-143.37;100.00;62585.38;5092641;28;20443;-76
2022/04/24 00:55:50;;;;;;;19.77;14.23;;;;;;;-143.37;100.00;62585.38;5086030;28;20436;-77
2022/04/24 00:58:26;;;;;;;14.90;12.43;;;;;;;-143.37;100.00;62585.38;5090560;28;20439;-76
2022/04/24 01:01:01;;;;;;;17.27;13.20;;;;;;;-143.37;100.00;62585.38;5086574;28;20468;-77
2022/04/24 01:03:38;;;;;;;18.00;12.50;;;;;;;-143.37;100.00;62585.38;5071096;28;20547;-76
2022/04/24 01:06:15;;;;;;;16.80;14.50;;;;;;;-143.37;100.00;62585.38;5070190;28;20449;-77
2022/04/24 01:08:51;;;;;;;20.17;14.13;;;;;;;-143.37;100.00;62585.38;5070405;28;20432;-76
2022/04/24 01:11:26;;;;;;;18.17;13.70;;;;;;;-143.37;100.00;62585.38;5069591;28;20784;-76
2022/04/24 01:14:02;;;;;;;16.90;14.37;;;;;;;-143.37;100.00;62585.38;5048517;28;20444;-77
2022/04/24 01:16:38;;;;;;;17.37;14.13;;;;;;;-143.37;100.00;62585.38;5068820;28;20514;-77
2022/04/24 01:19:14;;;;;;;15.20;13.57;;;;;;;-143.37;100.00;62585.38;5072053;28;20449;-76
2022/04/24 01:21:51;;;;;;;15.10;12.60;;;;;;;-143.37;100.00;62585.38;5051623;28;20448;-76
2022/04/24 01:24:28;;;;;;;17.43;13.70;;;;;;;-143.37;100.00;62585.38;5065767;28;20444;-77
2022/04/24 01:27:04;;;;;;;17.73;13.70;;;;;;;-143.37;100.00;62585.38;5090818;28;20856;-77
2022/04/24 01:29:40;;;;;;;21.27;14.93;;;;;;;-143.37;100.00;62585.38;5067954;28;20524;-76
2022/04/24 01:32:15;;;;;;;17.20;14.13;;;;;;;-143.37;100.00;62585.38;5071275;28;20449;-76
2022/04/24 01:34:51;;;;;;;17.80;15.27;;;;;;;-143.37;100.00;62585.38;5070336;28;20821;-76
2022/04/24 01:37:29;;;;;;;15.73;12.70;;;;;;;-143.37;100.00;62585.38;5055397;28;20469;-78
2022/04/24 01:40:05;;;;;;;16.60;13.60;;;;;;;-143.37;100.00;62585.38;5070050;28;20440;-76
2022/04/24 01:42:41;;;;;;;16.13;13.33;;;;;;;-143.37;100.00;62585.38;5069469;28;20436;-76
2022/04/24 01:45:19;;;;;;;17.17;14.67;;;;;;;-143.37;100.00;62585.38;5072046;28;20448;-77
2022/04/24 01:47:56;;;;;;;18.23;13.70;;;;;;;-143.37;100.00;62585.38;5069483;28;20457;-76
2022/04/24 01:50:31;;;;;;;16.17;12.83;;;;;;;-143.37;100.00;62585.38;5059583;28;20441;-76
2022/04/24 01:53:09;;;;;;;14.43;12.83;;;;;;;-143.37;100.00;62585.38;5072371;28;20444;-76
2022/04/24 01:55:44;;;;;;;16.57;12.50;;;;;;;-143.37;100.00;62585.38;5048591;28;20436;-77
2022/04/24 01:58:20;;;;;;;17.57;13.70;;;;;;;-143.37;100.00;62585.38;5066841;28;20445;-76
2022/04/24 02:00:56;;;;;;;17.47;14.10;;;;;;;-143.37;100.00;62585.38;5090394;28;20444;-77
2022/04/24 02:03:36;;;;;;;16.27;13.53;;;;;;;-143.37;100.00;62585.38;5083713;28;20788;-77
2022/04/24 02:06:12;;;;;;;14.90;11.70;;;;;;;-143.37;100.00;62585.38;5097957;28;20456;-76
2022/04/24 02:08:49;;;;;;;16.10;13.33;;;;;;;-143.37;100.00;62585.38;5087273;28;20831;-77
2022/04/24 02:11:25;;;;;;;16.37;13.10;;;;;;;-143.37;100.00;62585.38;5094053;28;20440;-77
2022/04/24 02:14:01;;;;;;;17.03;13.80;;;;;;;-143.37;100.00;62585.38;5084322;28;20440;-76
2022/04/24 02:16:36;;;;;;;18.60;14.90;;;;;;;-143.37;100.00;62585.38;5062750;28;20455;-76
2022/04/24 02:19:12;;;;;;;16.20;13.70;;;;;;;-143.37;100.00;62585.38;5074990;28;20440;-77
2022/04/24 02:21:48;;;;;;;19.73;12.00;;;;;;;-143.37;100.00;62585.38;5092014;28;20435;-77
2022/04/24 02:24:26;;;;;;;18.53;14.30;;;;;;;-143.37;100.00;62585.38;5086429;28;20819;-77
2022/04/24 02:27:02;;;;;;;15.30;12.93;;;;;;;-143.37;100.00;62585.38;5073843;28;20974;-76
2022/04/24 02:29:37;;;;;;;14.93;11.93;;;;;;;-143.37;100.00;62585.38;5107808;28;20464;-77
2022/04/24 02:32:13;;;;;;;14.80;12.60;;;;;;;-143.37;100.00;62585.38;5073292;28;20945;-78
2022/04/24 02:34:49;;;;;;;18.00;13.40;;;;;;;-143.37;100.00;62585.38;5072214;28;20451;-78
2022/04/24 02:37:25;;;;;;;17.60;13.00;;;;;;;-143.37;100.00;62585.38;5084869;28;20448;-78
2022/04/24 02:40:02;;;;;;;18.20;13.63;;;;;;;-143.37;100.00;62585.38;5081897;28;20923;-77
2022/04/24 02:42:38;;;;;;;16.10;13.37;;;;;;;-143.37;100.00;62585.38;5087095;28;20440;-78
2022/04/24 02:45:14;;;;;;;16.87;13.10;;;;;;;-143.37;100.00;62585.38;5090158;28;20435;-78
2022/04/24 02:47:50;;;;;;;18.47;13.80;;;;;;;-143.37;100.00;62585.38;5070361;28;20472;-78
2022/04/24 02:50:25;;;;;;;15.80;14.20;;;;;;;-143.37;100.00;62585.38;5085472;28;20540;-78
2022/04/24 02:53:01;;;;;;;18.30;14.03;;;;;;;-143.37;100.00;62585.38;5083417;28;20790;-78
2022/04/24 02:55:38;;;;;;;17.63;14.13;;;;;;;-143.37;100.00;62585.38;5101857;28;21135;-77
2022/04/24 02:58:14;;;;;;;18.17;14.60;;;;;;;-143.37;100.00;62585.38;5084013;28;20455;-77
2022/04/24 03:00:51;;;;;;;16.73;13.97;;;;;;;-143.37;100.00;62585.38;5073503;28;20528;-77
2022/04/24 03:03:26;;;;;;;16.27;12.70;;;;;;;-143.37;100.00;62585.38;5054677;28;20816;-78
2022/04/24 03:06:02;;;;;;;17.50;14.57;;;;;;;-143.37;100.00;62585.38;5064672;28;20564;-77
2022/04/24 03:08:39;;;;;;;17.60;14.30;;;;;;;-143.37;100.00;62585.38;5069865;28;20542;-77
2022/04/24 03:11:21;;;;;;;16.80;13.97;;;;;;;-143.37;100.00;62585.38;5068243;28;20524;-77
2022/04/24 03:13:57;;;;;;;22.57;14.70;;;;;;;-143.37;100.00;62585.38;5087551;28;20458;-77
2022/04/24 03:16:32;;;;;;;16.67;13.37;;;;;;;-143.37;100.00;62585.38;5066361;28;20829;-77
2022/04/24 03:19:08;;;;;;;16.77;14.20;;;;;;;-143.37;100.00;62585.38;5067936;28;20856;-77
2022/04/24 03:21:44;;;;;;;16.40;14.50;;;;;;;-143.37;100.00;62585.38;5062544;28;20959;-77
2022/04/24 03:24:19;;;;;;;16.73;14.00;;;;;;;-143.37;100.00;62585.38;5067617;28;20539;-77
2022/04/24 03:26:56;;;;;;;17.57;14.37;;;;;;;-143.37;100.00;62585.38;5067743;28;20987;-77
2022/04/24 03:29:32;;;;;;;20.63;13.90;;;;;;;-143.37;100.00;62585.38;5053102;28;20862;-77
2022/04/24 03:32:08;;;;;;;20.10;13.90;;;;;;;-143.37;100.00;62585.38;5053367;28;20449;-77
2022/04/24 03:34:50;;;;;;;19.10;14.43;;;;;;;-143.37;100.00;62585.38;5081275;28;20449;-77
2022/04/24 03:37:26;;;;;;;15.43;13.07;;;;;;;-143.37;100.00;62585.38;5065389;28;20430;-77
2022/04/24 03:40:02;;;;;;;20.40;15.77;;;;;;;-143.37;100.00;62585.38;5082647;28;20446;-77
2022/04/24 03:42:38;;;;;;;18.07;14.80;;;;;;;-143.37;100.00;62585.38;5062159;28;20453;-77
2022/04/24 03:45:14;;;;;;;17.63;14.67;;;;;;;-143.37;100.00;62585.38;5053403;28;20476;-76
2022/04/24 03:47:51;;;;;;;17.77;13.93;;;;;;;-143.37;100.00;62585.38;5071629;28;20575;-78
2022/04/24 03:50:27;;;;;;;21.97;16.63;;;;;;;-143.37;100.00;62585.38;5066495;28;20782;-78
2022/04/24 03:53:03;;;;;;;15.10;13.50;;;;;;;-143.37;100.00;62585.38;5051095;28;20445;-78
2022/04/24 03:55:39;;;;;;;18.10;14.90;;;;;;;-143.37;100.00;62585.38;5075857;28;20473;-78
2022/04/24 03:58:16;;;;;;;18.03;14.77;;;;;;;-143.37;100.00;62585.38;5067794;28;20436;-78
2022/04/24 04:00:51;;;;;;;20.57;15.07;;;;;;;-143.37;100.00;62585.38;5048811;28;20485;-78
2022/04/24 04:03:27;;;;;;;19.40;15.00;;;;;;;-143.37;100.00;62585.38;5068304;28;20437;-79
2022/04/24 04:06:03;;;;;;;17.07;14.27;;;;;;;-143.37;100.00;62585.38;5063603;28;20462;-79
2022/04/24 04:08:38;;;;;;;16.73;13.30;;;;;;;-143.37;100.00;62585.38;5063905;28;20453;-78
2022/04/24 04:11:14;;;;;;;17.37;14.47;;;;;;;-143.37;100.00;62585.38;5063425;28;20429;-79
2022/04/24 04:13:51;;;;;;;20.00;16.53;;;;;;;-143.37;100.00;62585.38;5073050;28;20475;-79
2022/04/24 04:16:27;;;;;;;22.70;16.90;;;;;;;-143.37;100.00;62585.38;5054545;28;20913;-79
2022/04/24 04:19:03;;;;;;;19.40;14.57;;;;;;;-143.37;100.00;62585.38;5072834;28;20471;-79
2022/04/24 04:21:38;;;;;;;19.47;16.27;;;;;;;-143.37;100.00;62585.38;5068703;28;20445;-79
2022/04/24 04:24:24;;;;;;;17.77;14.60;;;;;;;-143.37;100.00;62585.38;5052595;28;20445;-79
2022/04/24 04:27:03;;;;;;;18.80;15.60;;;;;;;-143.37;100.00;62585.38;5080911;28;20460;-79
2022/04/24 04:29:40;;;;;;;19.57;16.13;;;;;;;-143.37;100.00;62585.38;5084424;28;20772;-79
2022/04/24 04:32:16;;;;;;;21.00;16.37;;;;;;;-143.37;100.00;62585.38;5072698;28;20802;-79
2022/04/24 04:34:52;;;;;;;21.57;16.33;;;;;;;-143.37;100.00;62585.38;5070607;28;20475;-79
2022/04/24 04:37:27;;;;;;;21.27;15.53;;;;;;;-143.37;100.00;62585.38;5065475;28;20448;-79
2022/04/24 04:40:04;;;;;;;19.67;14.33;;;;;;;-143.37;100.00;62585.38;5052621;28;20445;-80
2022/04/24 04:42:40;;;;;;;11.50;9.20;;;;;;;-143.37;100.00;62585.38;5054872;28;20449;-80
2022/04/24 04:45:17;;;;;;;7.87;6.43;;;;;;;-143.37;100.00;62585.38;5068826;28;20519;-79
2022/04/24 04:47:52;;;;;;;7.30;5.70;;;;;;;-143.37;100.00;62585.38;5069459;28;20477;-79
2022/04/24 04:50:28;;;;;;;6.77;4.53;;;;;;;-143.37;100.00;62585.38;5053648;28;21553;-79
2022/04/24 04:53:04;;;;;;;3.83;2.80;;;;;;;-143.37;100.00;62585.38;5069208;28;20449;-79
2022/04/24 04:55:39;;;;;;;5.13;2.43;;;;;;;-143.37;100.00;62585.38;5052942;28;20488;-79
2022/04/24 04:58:15;;;;;;;4.13;2.50;;;;;;;-143.37;100.00;62585.38;5071621;28;20487;-79
2022/04/24 05:00:52;;;;;;;3.13;2.20;;;;;;;-143.37;100.00;62585.38;5068568;28;20444;-79
2022/04/24 05:03:28;;;;;;;2.20;1.70;;;;;;;-143.37;100.00;62585.38;5054888;28;20460;-80
2022/04/24 05:06:04;;;;;;;3.67;2.10;;;;;;;-143.37;100.00;62585.38;5066859;28;20440;-79
2022/04/24 05:08:39;;;;;;;3.57;1.60;;;;;;;-143.37;100.00;62585.38;5065706;28;20453;-79
2022/04/24 05:11:15;;;;;;;1.77;1.10;;;;;;;-143.37;100.00;62585.38;5065406;28;21469;-79
2022/04/24 05:13:52;;;;;;;3.13;0.90;;;;;;;-143.37;100.00;62585.38;5064565;28;20472;-79
2022/04/24 05:16:29;;;;;;;2.03;1.13;;;;;;;-143.37;100.00;62585.38;5064344;28;20449;-79
2022/04/24 05:19:06;;;;;;;1.40;0.80;;;;;;;-143.37;100.00;62585.38;5047289;28;20781;-79
2022/04/24 05:21:41;;;;;;;1.10;0.50;;;;;;;-143.37;100.00;62585.38;5063160;28;20474;-79
2022/04/24 05:24:19;;;;;;;1.00;0.50;;;;;;;-143.37;100.00;62585.38;5059082;28;20448;-79
2022/04/24 05:26:55;;;;;;;1.33;0.40;;;;;;;-143.37;100.00;62585.38;5060294;28;20490;-79
2022/04/24 05:29:31;;;;;;;1.90;0.23;;;;;;;-143.37;100.00;62585.38;5086820;28;20533;-79
2022/04/24 05:32:10;;;;;;;1.00;0.43;;;;;;;-143.37;100.00;62585.38;5053623;28;20433;-79
2022/04/24 05:34:48;;;;;;;1.57;0.60;;;;;;;-143.37;100.00;62585.38;5069332;28;20479;-79
2022/04/24 05:37:24;;;;;;;1.00;0.40;;;;;;;-143.37;100.00;62585.38;5069948;28;20454;-79
2022/04/24 05:39:59;;;;;;;0.83;0.40;;;;;;;-143.37;100.00;62585.38;5066477;28;20432;-79
2022/04/24 05:42:35;;;;;;;0.80;0.30;;;;;;;-143.37;100.00;62585.38;5059449;28;20461;-79
2022/04/24 05:45:14;;;;;;;1.87;0.50;;;;;;;-143.37;100.00;62585.38;5044408;28;20810;-78
2022/04/24 05:47:51;;;;;;;0.90;0.30;;;;;;;-143.37;100.00;62585.38;5059777;28;20508;-80
2022/04/24 05:50:27;;;;;;;1.20;0.40;;;;;;;-143.37;100.00;62585.38;5054319;28;20526;-80
2022/04/24 05:53:03;;;;;;;1.23;0.47;;;;;;;-143.37;100.00;62585.38;5058252;28;20488;-80
2022/04/24 05:55:38;;;;;;;0.87;0.30;;;;;;;-143.37;100.00;62585.38;5054283;28;20465;-80
2022/04/24 05:58:14;;;;;;;0.93;0.43;;;;;;;-143.37;100.00;62585.38;5065146;28;20460;-80
2022/04/24 06:00:49;;;;;;;1.00;0.40;;;;;;;-143.37;100.00;62585.38;5065084;28;20524;-79
2022/04/24 06:03:26;;;;;;;0.70;0.37;;;;;;;-143.37;100.00;62585.38;5051067;28;20518;-79
2022/04/24 06:06:02;;;;;;;0.80;0.23;;;;;;;-143.37;100.00;62585.38;5064598;28;20458;-79
2022/04/24 06:08:37;;;;;;;0.80;0.50;;;;;;;-143.37;100.00;62585.38;5080872;28;20772;-79
2022/04/24 06:11:13;;;;;;;0.70;0.30;;;;;;;-143.37;100.00;62585.38;5061612;28;20519;-79
2022/04/24 06:13:49;;;;;;;1.07;0.33;;;;;;;-143.37;100.00;62585.38;5054298;28;20539;-79
2022/04/24 06:16:24;;;;;;;0.73;0.30;;;;;;;-143.37;100.00;62585.38;5069205;28;20735;-79
2022/04/24 06:19:01;;;;;;;0.80;0.30;;;;;;;-143.37;100.00;62585.38;5064352;28;20445;-79
2022/04/24 06:21:37;;;;;;;1.17;0.67;;;;;;;-143.37;100.00;62585.38;5066202;28;20453;-79
2022/04/24 06:24:13;;;;;;;0.80;0.30;;;;;;;-143.37;100.00;62585.38;5055295;28;21041;-79
2022/04/24 06:26:50;;;;;;;1.00;0.40;;;;;;;-143.37;100.00;62585.38;5072002;28;20461;-78
2022/04/24 06:29:27;;;;;;;0.70;0.30;;;;;;;-143.37;100.00;62585.38;5067137;28;20503;-78
2022/04/24 06:32:06;;;;;;;0.67;0.20;;;;;;;-143.37;100.00;62585.38;5076468;28;20460;-78
2022/04/24 06:34:43;;;;;;;0.93;0.40;;;;;;;-143.37;100.00;62585.38;5050228;28;20437;-78
2022/04/24 06:37:20;;;;;;;0.90;0.40;;;;;;;-143.37;100.00;62585.38;5047589;28;20441;-78
2022/04/24 06:39:56;;;;;;;0.70;0.20;;;;;;;-143.37;100.00;62585.38;5084475;28;20541;-78
2022/04/24 06:42:31;;;;;;;0.80;0.33;;;;;;;-143.37;100.00;62585.38;5070175;28;21017;-78
2022/04/24 06:45:07;;;;;;;0.80;0.30;;;;;;;-143.37;100.00;62585.38;5068758;28;20799;-78
2022/04/24 06:47:44;;;;;;;0.70;0.30;;;;;;;-143.37;100.00;62585.38;5066346;28;20480;-78
2022/04/24 06:50:22;;;;;;;0.70;0.27;;;;;;;-143.37;100.00;62585.38;5062027;28;20876;-79
2022/04/24 06:52:59;;;;;;;0.60;0.20;;;;;;;-143.37;100.00;62585.38;5062782;28;20473;-79
2022/04/24 06:55:38;;;;;;;0.70;0.30;;;;;;;-143.37;100.00;62585.38;5066363;28;20493;-78
2022/04/24 06:58:14;;;;;;;0.60;0.30;;;;;;;-143.37;100.00;62585.38;5069633;28;20441;-78
2022/04/24 07:00:50;;;;;;;0.60;0.20;;;;;;;-143.37;100.00;62585.38;5082642;28;20473;-78
2022/04/24 07:03:26;;;;;;;0.80;0.30;;;;;;;-143.37;100.00;62585.38;5064333;28;20540;-79
2022/04/24 07:06:04;;;;;;;0.70;0.30;;;;;;;-143.37;100.00;62585.38;5076509;28;20492;-78
2022/04/24 07:08:39;;;;;;;0.70;0.40;;;;;;;-143.37;100.00;62585.38;5066761;28;20472;-78
2022/04/24 07:11:15;;;;;;;1.87;0.40;;;;;;;-143.37;100.00;62585.38;5063027;28;20445;-79
2022/04/24 07:13:51;;;;;;;0.60;0.20;;;;;;;-143.37;100.00;62585.38;5075572;28;20460;-78
2022/04/24 07:16:26;;;;;;;0.70;0.23;;;;;;;-143.37;100.00;62585.38;5047261;28;20548;-78
2022/04/24 07:19:03;;;;;;;1.00;0.70;;;;;;;-143.37;100.00;62585.38;5046088;28;20468;-78
2022/04/24 07:21:40;;;;;;;1.00;0.60;;;;;;;-143.37;100.00;62585.38;5047599;28;20791;-79
2022/04/24 07:24:15;;;;;;;1.67;1.00;;;;;;;-143.37;100.00;62585.38;5054193;28;20472;-78
2022/04/24 07:26:51;;;;;;;1.20;0.70;;;;;;;-143.37;100.00;62585.38;5050333;28;20429;-78
2022/04/24 07:29:27;;;;;;;1.13;0.70;;;;;;;-143.37;100.00;62585.38;5068810;28;20824;-78
2022/04/24 07:32:03;;;;;;;0.77;0.50;;;;;;;-143.37;100.00;62585.38;5069672;28;20445;-78
2022/04/24 07:34:38;;;;;;;0.90;0.43;;;;;;;-143.37;100.00;62585.38;5040569;28;20839;-79
2022/04/24 07:37:16;;;;;;;0.80;0.30;;;;;;;-143.37;100.00;62585.38;5052701;28;20460;-79
2022/04/24 07:39:51;;;;;;;0.80;0.40;;;;;;;-143.37;100.00;62585.38;5036524;28;20544;-79
2022/04/24 07:42:27;;;;;;;1.00;0.40;;;;;;;-143.37;100.00;62585.38;5072998;28;20791;-78
2022/04/24 07:45:02;;;;;;;0.70;0.30;;;;;;;-143.37;100.00;62585.38;5056584;28;20436;-79
2022/04/24 07:47:38;;;;;;;0.93;0.43;;;;;;;-143.37;100.00;62585.38;5059003;28;20472;-79
2022/04/24 07:50:14;;;;;;;0.77;0.37;;;;;;;-143.37;100.00;62585.38;5057162;28;20432;-79
2022/04/24 07:52:51;;;;;;;0.80;0.47;;;;;;;-143.37;100.00;62585.38;5055804;28;20450;-79
2022/04/24 07:55:27;;;;;;;1.07;0.50;;;;;;;-143.37;100.00;62585.38;5043239;28;20437;-79
2022/04/24 07:58:03;;;;;;;1.43;0.80;;;;;;;-143.37;100.00;62585.38;5056838;28;20799;-79
2022/04/24 08:00:39;;;;;;;1.17;0.63;;;;;;;-143.37;100.00;62585.38;5060382;28;20441;-79
2022/04/24 08:03:15;;;;;;;3.13;0.90;;;;;;;-143.37;100.00;62585.38;5080915;28;20456;-79
2022/04/24 08:05:52;;;;;;;1.10;0.70;;;;;;;-143.37;100.00;62585.38;5066201;28;20531;-79
2022/04/24 08:08:28;;;;;;;1.40;0.90;;;;;;;-143.37;100.00;62585.38;5068017;28;20476;-79
2022/04/24 08:11:04;;;;;;;2.40;1.20;;;;;;;-143.37;100.00;62585.38;5079115;28;20453;-79
2022/04/24 08:13:39;;;;;;;2.40;0.70;;;;;;;-143.37;100.00;62585.38;5069156;28;20928;-79
2022/04/24 08:16:15;;;;;;;2.00;0.70;;;;;;;-143.37;100.00;62585.38;5067068;28;20444;-79
2022/04/24 08:18:53;;;;;;;1.30;0.90;;;;;;;-143.37;100.00;62585.38;5094876;27;20943;-79
2022/04/24 08:21:28;;;;;;;1.00;0.60;;;;;;;-143.37;100.00;62585.38;5073555;28;20445;-79
2022/04/24 08:24:05;;;;;;;0.77;0.47;;;;;;;-143.37;100.00;62585.38;5093469;27;20922;-79
2022/04/24 08:26:42;;;;;;;0.80;0.50;;;;;;;-143.37;100.00;62585.38;5068539;28;20796;-79
2022/04/24 08:29:27;;;;;;;0.80;0.60;;;;;;;-143.37;100.00;62585.38;5082228;28;20823;-79
2022/04/24 08:32:04;;;;;;;1.00;0.70;;;;;;;-143.37;100.00;62585.38;5066125;28;20452;-79
2022/04/24 08:34:42;;;;;;;0.90;0.50;;;;;;;-143.37;100.00;62585.38;5056004;28;20944;-79
2022/04/24 08:37:20;;;;;;;2.20;0.50;;;;;;;-143.37;100.00;62585.38;5066372;28;20961;-79
2022/04/24 08:39:57;;;;;;;0.80;0.40;;;;;;;-143.37;100.00;62585.38;5068717;28;20486;-79
2022/04/24 08:42:33;;;;;;;1.20;0.60;;;;;;;-143.37;100.00;62585.38;5080880;28;20837;-79
2022/04/24 08:45:11;;;;;;;1.23;0.50;;;;;;;-143.37;100.00;62585.38;5079864;28;20965;-79
2022/04/24 08:47:51;;;;;;;1.57;0.70;;;;;;;-143.37;100.00;62585.38;5093462;27;20970;-79
2022/04/24 08:50:29;;;;;;;1.27;0.57;;;;;;;-143.37;100.00;62585.38;5079873;28;20811;-79
2022/04/24 08:53:05;;;;;;;4.90;1.20;;;;;;;-143.37;100.00;62585.38;5066256;28;20456;-79
2022/04/24 08:55:43;;;;;;;1.30;0.60;;;;;;;-143.37;100.00;62585.38;5062220;28;20456;-79
2022/04/24 08:58:23;;;;;;;1.27;0.93;;;;;;;-143.37;100.00;62585.38;5078778;28;20523;-78
2022/04/24 09:00:59;;;;;;;1.30;0.60;;;;;;;-143.37;100.00;62585.38;5081290;28;20847;-79
2022/04/24 09:03:34;;;;;;;1.40;0.70;;;;;;;-143.37;100.00;62585.38;5075341;28;20824;-78
2022/04/24 09:06:21;;;;;;;1.50;1.00;;;;;;;-143.37;100.00;62585.38;5059584;28;20472;-78
2022/04/24 09:09:05;;;;;;;1.70;1.10;;;;;;;-143.37;100.00;62585.38;5058132;28;20468;-78
2022/04/24 09:11:42;;;;;;;1.47;0.90;;;;;;;-143.37;100.00;62585.38;5056184;28;20468;-78
2022/04/24 09:14:24;;;;;;;1.00;0.70;;;;;;;-143.37;100.00;62585.38;5058490;28;20456;-78
2022/04/24 09:17:01;;;;;;;0.90;0.60;;;;;;;-143.37;100.00;62585.38;5067768;28;20430;-78
2022/04/24 09:19:38;;;;;;;1.77;1.20;;;;;;;-143.37;100.00;62585.38;5069997;28;20433;-78
2022/04/24 09:22:14;;;;;;;1.33;0.70;;;;;;;-143.37;100.00;62585.38;5063182;28;20548;-78
2022/04/24 09:24:52;;;;;;;1.20;0.90;;;;;;;-143.37;100.00;62585.38;5047118;28;20444;-79
2022/04/24 09:27:32;;;;;;;1.10;0.70;;;;;;;-143.37;100.00;62585.38;5062295;28;20533;-79
2022/04/24 09:30:11;;;;;;;1.50;0.60;;;;;;;-143.37;100.00;62585.38;5075091;28;20446;-78
2022/04/24 09:32:49;;;;;;;1.43;0.90;;;;;;;-143.37;100.00;62585.38;5045142;28;20441;-78
2022/04/24 09:35:26;;;;;;;2.43;1.00;;;;;;;-143.37;100.00;62585.38;5064063;28;20444;-78
2022/04/24 09:38:10;;;;;;;1.40;1.03;;;;;;;-143.37;100.00;62585.38;5060203;28;20449;-78
2022/04/24 09:40:47;;;;;;;1.53;1.10;;;;;;;-143.37;100.00;62585.38;5057944;28;20448;-79
2022/04/24 09:43:24;;;;;;;1.43;1.00;;;;;;;-143.37;100.00;62585.38;5060430;28;20506;-78
2022/04/24 09:46:00;;;;;;;1.33;0.83;;;;;;;-143.37;100.00;62585.38;5046845;28;20441;-78
2022/04/24 09:48:36;;;;;;;1.10;0.73;;;;;;;-143.37;100.00;62585.38;5068742;28;20480;-78
2022/04/24 09:51:13;;;;;;;1.23;0.90;;;;;;;-143.37;100.00;62585.38;5066392;28;20524;-79
2022/04/24 09:53:49;;;;;;;1.63;0.80;;;;;;;-143.37;100.00;62585.38;5058025;28;20555;-79
2022/04/24 09:56:26;;;;;;;1.13;0.90;;;;;;;-143.37;100.00;62585.38;5055823;28;20531;-79
2022/04/24 09:59:04;;;;;;;1.17;0.80;;;;;;;-143.37;100.00;62585.38;5055128;28;20449;-79
2022/04/24 10:01:40;;;;;;;1.20;0.80;;;;;;;-143.37;100.00;62585.38;5069224;28;20838;-79
2022/04/24 10:04:16;;;;;;;1.20;1.00;;;;;;;-143.37;100.00;62585.38;5053517;28;20448;-78
2022/04/24 10:06:52;;;;;;;1.60;0.90;;;;;;;-143.37;100.00;62585.38;5054096;28;20949;-78
2022/04/24 10:09:30;;;;;;;2.10;1.10;;;;;;;-143.37;100.00;62585.38;5050936;28;20878;-78
2022/04/24 10:12:06;;;;;;;2.30;1.50;;;;;;;-143.37;100.00;62585.38;5053545;28;20430;-78
2022/04/24 10:14:47;;;;;;;2.00;1.17;;;;;;;-143.37;100.00;62585.38;5057475;28;20441;-79
2022/04/24 10:18:07;;;;;;;1.83;1.03;;;;;;;-143.37;100.00;62585.38;5054057;28;20531;-79
2022/04/24 10:21:12;;;;;;;2.73;1.30;;;;;;;-143.37;100.00;62585.38;5027523;28;20448;-79
2022/04/24 10:23:48;;;;;;;2.80;1.00;;;;;;;-143.37;100.00;62585.38;5054060;28;20770;-79
2022/04/24 10:26:24;;;;;;;1.70;0.90;;;;;;;-143.37;100.00;62585.38;5068029;28;20445;-79
2022/04/24 10:29:06;;;;;;;1.70;1.10;;;;;;;-143.37;100.00;62585.38;5047207;28;20473;-79
2022/04/24 10:31:44;;;;;;;1.63;1.17;;;;;;;-143.37;100.00;62585.38;5055931;28;20951;-79
2022/04/24 10:34:20;;;;;;;1.47;1.20;;;;;;;-143.37;100.00;62585.38;5067998;28;20535;-79
2022/04/24 10:36:57;;;;;;;3.27;1.30;;;;;;;-143.37;100.00;62585.38;5068883;28;20939;-78
2022/04/24 10:39:34;;;;;;;1.77;1.00;;;;;;;-143.37;100.00;62585.38;5051823;28;20469;-79
2022/04/24 10:42:13;;;;;;;2.90;1.47;;;;;;;-143.37;100.00;62585.38;5068826;28;20436;-78
2022/04/24 10:44:52;;;;;;;1.50;1.37;;;;;;;-143.37;100.00;62585.38;5054728;28;21026;-79
2022/04/24 10:47:41;;;;;;;2.67;1.83;;;;;;;-143.37;100.00;62585.38;5050154;28;20453;-78
2022/04/24 10:50:20;;;;;;;2.00;1.60;;;;;;;-143.37;100.00;62585.38;5068143;28;20449;-79
2022/04/24 10:52:56;;;;;;;2.20;1.37;;;;;;;-143.37;100.00;62585.38;5070233;28;20432;-79
2022/04/24 10:55:32;;;;;;;1.90;1.43;;;;;;;-143.37;100.00;62585.38;5051394;28;20536;-79
2022/04/24 10:58:11;;;;;;;2.13;1.20;;;;;;;-143.37;100.00;62585.38;5051870;28;20535;-78
2022/04/24 11:00:47;;;;;;;1.70;1.30;;;;;;;-143.37;100.00;62585.38;5062906;28;20433;-80
2022/04/24 11:03:38;;;;;;;1.57;1.27;;;;;;;-143.37;100.00;62585.38;5067660;28;20452;-80
2022/04/24 11:06:23;;;;;;;1.80;1.30;;;;;;;-143.37;100.00;62585.38;5050662;28;20481;-79
2022/04/24 11:09:07;;;;;;;2.27;1.13;;;;;;;-143.37;100.00;62585.38;5066924;28;20794;-79
2022/04/24 11:11:49;;;;;;;2.07;1.40;;;;;;;-143.37;100.00;62585.38;5036779;28;20449;-79
2022/04/24 11:14:26;;;;;;;2.10;1.30;;;;;;;-143.37;100.00;62585.38;5069061;28;20786;-79
2022/04/24 11:17:03;;;;;;;1.60;1.10;;;;;;;-143.37;100.00;62585.38;5084635;28;20473;-79
2022/04/24 11:19:42;;;;;;;1.63;1.07;;;;;;;-143.37;100.00;62585.38;5056022;28;20453;-79
2022/04/24 11:22:19;;;;;;;2.50;1.43;;;;;;;-143.37;100.00;62585.38;5068614;28;20441;-79
2022/04/24 11:24:55;;;;;;;1.50;0.87;;;;;;;-143.37;100.00;62585.38;5063302;28;20807;-78
2022/04/24 11:27:31;;;;;;;2.00;1.27;;;;;;;-143.37;100.00;62585.38;5041938;28;20465;-79
2022/04/24 11:30:26;;;;;;;1.10;0.63;;;;;;;-143.37;100.00;62585.38;5050262;28;20511;-79
2022/04/24 11:33:05;;;;;;;1.30;0.90;;;;;;;-143.37;100.00;62585.38;5074767;28;20442;-79
2022/04/24 11:35:42;;;;;;;2.60;1.30;;;;;;;-143.37;100.00;62585.38;5055937;28;20449;-79
2022/04/24 11:38:20;;;;;;;1.00;0.60;;;;;;;-143.37;100.00;62585.38;5048737;28;20876;-79
2022/04/24 11:40:56;;;;;;;1.53;0.90;;;;;;;-143.37;100.00;62585.38;5066127;28;20437;-79
2022/04/24 11:43:32;;;;;;;1.23;0.80;;;;;;;-143.37;100.00;62585.38;5065736;28;20460;-79
2022/04/24 11:52:08;;;;;;;1.50;0.70;;;;;;;-143.37;100.00;62585.38;5068797;28;20510;-79